sensor_id;sensor_type;location;lat;lon;timestamp;temperature;humidity
69464;DHT22;56665;41.106;16.688;2023-04-25T00:00:37;15.69;63.22
69464;DHT22;56665;41.106;16.688;2023-04-25T00:03:45;15.67;63.05
69464;DHT22;56665;41.106;16.688;2023-04-25T00:06:50;15.63;62.89
69464;DHT22;56665;41.106;16.688;2023-04-25T00:09:56;15.60;63.23
69464;DHT22;56665;41.106;16.688;2023-04-25T00:13:01;15.56;63.73
69464;DHT22;56665;41.106;16.688;2023-04-25T00:16:06;15.50;64.39
69464;DHT22;56665;41.106;16.688;2023-04-25T00:19:10;15.46;64.15
69464;DHT22;56665;41.106;16.688;2023-04-25T00:22:13;15.42;63.76
69464;DHT22;56665;41.106;16.688;2023-04-25T00:25:18;15.45;63.47
69464;DHT22;56665;41.106;16.688;2023-04-25T00:28:23;15.46;63.30
69464;DHT22;56665;41.106;16.688;2023-04-25T00:31:26;15.50;62.95
69464;DHT22;56665;41.106;16.688;2023-04-25T00:34:30;15.47;62.98
69464;DHT22;56665;41.106;16.688;2023-04-25T00:37:34;15.43;62.20
69464;DHT22;56665;41.106;16.688;2023-04-25T00:40:38;15.40;62.49
69464;DHT22;56665;41.106;16.688;2023-04-25T00:43:43;15.39;62.82
69464;DHT22;56665;41.106;16.688;2023-04-25T00:46:49;15.39;62.93
69464;DHT22;56665;41.106;16.688;2023-04-25T00:49:54;15.39;63.24
69464;DHT22;56665;41.106;16.688;2023-04-25T00:52:58;15.36;63.04
69464;DHT22;56665;41.106;16.688;2023-04-25T00:56:02;15.36;63.12
69464;DHT22;56665;41.106;16.688;2023-04-25T00:59:09;15.34;63.22
69464;DHT22;56665;41.106;16.688;2023-04-25T01:02:13;15.35;62.64
69464;DHT22;56665;41.106;16.688;2023-04-25T01:05:19;15.34;62.52
69464;DHT22;56665;41.106;16.688;2023-04-25T01:08:24;15.35;62.72
69464;DHT22;56665;41.106;16.688;2023-04-25T01:11:28;15.32;62.72
69464;DHT22;56665;41.106;16.688;2023-04-25T01:14:32;15.34;62.65
69464;DHT22;56665;41.106;16.688;2023-04-25T01:17:35;15.31;62.58
69464;DHT22;56665;41.106;16.688;2023-04-25T01:20:43;15.31;62.88
69464;DHT22;56665;41.106;16.688;2023-04-25T01:23:48;15.32;62.60
69464;DHT22;56665;41.106;16.688;2023-04-25T01:26:53;15.36;62.37
69464;DHT22;56665;41.106;16.688;2023-04-25T01:30:01;15.36;62.60
69464;DHT22;56665;41.106;16.688;2023-04-25T01:33:07;15.35;62.75
69464;DHT22;56665;41.106;16.688;2023-04-25T01:36:12;15.23;63.01
69464;DHT22;56665;41.106;16.688;2023-04-25T01:39:17;15.20;63.60
69464;DHT22;56665;41.106;16.688;2023-04-25T01:42:23;15.20;63.79
69464;DHT22;56665;41.106;16.688;2023-04-25T01:45:28;15.16;64.13
69464;DHT22;56665;41.106;16.688;2023-04-25T01:48:33;15.12;64.37
69464;DHT22;56665;41.106;16.688;2023-04-25T01:51:37;15.11;64.54
69464;DHT22;56665;41.106;16.688;2023-04-25T01:54:43;15.08;64.53
69464;DHT22;56665;41.106;16.688;2023-04-25T01:57:48;15.01;64.55
69464;DHT22;56665;41.106;16.688;2023-04-25T02:00:53;14.95;64.65
69464;DHT22;56665;41.106;16.688;2023-04-25T02:03:56;14.92;64.41
69464;DHT22;56665;41.106;16.688;2023-04-25T02:07:05;14.83;65.26
69464;DHT22;56665;41.106;16.688;2023-04-25T02:10:22;14.73;65.22
69464;DHT22;56665;41.106;16.688;2023-04-25T02:13:39;14.77;64.95
69464;DHT22;56665;41.106;16.688;2023-04-25T02:17:13;14.77;64.76
69464;DHT22;56665;41.106;16.688;2023-04-25T02:20:22;14.80;64.30
69464;DHT22;56665;41.106;16.688;2023-04-25T02:23:28;14.83;63.96
69464;DHT22;56665;41.106;16.688;2023-04-25T02:26:33;14.81;63.91
69464;DHT22;56665;41.106;16.688;2023-04-25T02:29:38;14.78;63.60
69464;DHT22;56665;41.106;16.688;2023-04-25T02:32:41;14.80;63.82
69464;DHT22;56665;41.106;16.688;2023-04-25T02:35:46;14.77;63.90
69464;DHT22;56665;41.106;16.688;2023-04-25T02:38:50;14.81;63.99
69464;DHT22;56665;41.106;16.688;2023-04-25T02:41:53;14.88;63.87
69464;DHT22;56665;41.106;16.688;2023-04-25T02:44:58;14.88;63.90
69464;DHT22;56665;41.106;16.688;2023-04-25T02:48:06;14.88;63.80
69464;DHT22;56665;41.106;16.688;2023-04-25T02:51:12;14.91;63.82
69464;DHT22;56665;41.106;16.688;2023-04-25T02:54:17;14.97;63.79
69464;DHT22;56665;41.106;16.688;2023-04-25T02:57:24;14.98;63.96
69464;DHT22;56665;41.106;16.688;2023-04-25T03:00:29;14.99;63.89
69464;DHT22;56665;41.106;16.688;2023-04-25T03:03:36;14.94;64.34
69464;DHT22;56665;41.106;16.688;2023-04-25T03:06:40;14.89;64.73
69464;DHT22;56665;41.106;16.688;2023-04-25T03:09:43;14.88;64.93
69464;DHT22;56665;41.106;16.688;2023-04-25T03:12:52;14.91;65.31
69464;DHT22;56665;41.106;16.688;2023-04-25T03:15:57;14.91;65.12
69464;DHT22;56665;41.106;16.688;2023-04-25T03:19:03;14.89;65.21
69464;DHT22;56665;41.106;16.688;2023-04-25T03:22:08;14.92;65.54
69464;DHT22;56665;41.106;16.688;2023-04-25T03:25:12;14.91;65.79
69464;DHT22;56665;41.106;16.688;2023-04-25T03:28:16;14.91;65.79
69464;DHT22;56665;41.106;16.688;2023-04-25T03:31:20;14.84;66.06
69464;DHT22;56665;41.106;16.688;2023-04-25T03:34:26;14.81;66.20
69464;DHT22;56665;41.106;16.688;2023-04-25T03:37:33;14.76;66.44
69464;DHT22;56665;41.106;16.688;2023-04-25T03:40:37;14.71;66.57
69464;DHT22;56665;41.106;16.688;2023-04-25T03:43:52;14.70;66.79
69464;DHT22;56665;41.106;16.688;2023-04-25T03:46:57;14.68;66.83
69464;DHT22;56665;41.106;16.688;2023-04-25T03:50:02;14.64;67.17
69464;DHT22;56665;41.106;16.688;2023-04-25T03:53:06;14.60;67.46
69464;DHT22;56665;41.106;16.688;2023-04-25T03:56:31;14.59;67.67
69464;DHT22;56665;41.106;16.688;2023-04-25T03:59:47;14.59;67.89
69464;DHT22;56665;41.106;16.688;2023-04-25T04:02:52;14.66;68.06
69464;DHT22;56665;41.106;16.688;2023-04-25T04:05:56;14.67;68.26
69464;DHT22;56665;41.106;16.688;2023-04-25T04:09:02;14.76;68.01
69464;DHT22;56665;41.106;16.688;2023-04-25T04:12:11;14.81;67.65
69464;DHT22;56665;41.106;16.688;2023-04-25T04:15:17;14.83;67.62
69464;DHT22;56665;41.106;16.688;2023-04-25T04:18:25;14.92;67.40
69464;DHT22;56665;41.106;16.688;2023-04-25T04:21:30;15.14;66.80
69464;DHT22;56665;41.106;16.688;2023-04-25T04:24:38;15.29;66.44
69464;DHT22;56665;41.106;16.688;2023-04-25T04:27:44;15.49;65.90
69464;DHT22;56665;41.106;16.688;2023-04-25T04:31:04;15.63;65.51
69464;DHT22;56665;41.106;16.688;2023-04-25T04:34:07;15.63;65.43
69464;DHT22;56665;41.106;16.688;2023-04-25T04:37:13;15.70;65.11
69464;DHT22;56665;41.106;16.688;2023-04-25T04:40:18;15.78;64.96
69464;DHT22;56665;41.106;16.688;2023-04-25T04:43:38;16.01;64.77
69464;DHT22;56665;41.106;16.688;2023-04-25T04:47:02;16.20;64.26
69464;DHT22;56665;41.106;16.688;2023-04-25T04:50:31;16.45;63.69
69464;DHT22;56665;41.106;16.688;2023-04-25T04:53:55;16.79;62.80
69464;DHT22;56665;41.106;16.688;2023-04-25T04:57:28;17.10;61.90
69464;DHT22;56665;41.106;16.688;2023-04-25T05:00:49;17.42;61.20
69464;DHT22;56665;41.106;16.688;2023-04-25T05:04:15;17.68;60.16
69464;DHT22;56665;41.106;16.688;2023-04-25T05:07:39;17.82;59.71
69464;DHT22;56665;41.106;16.688;2023-04-25T05:11:15;17.85;59.84
69464;DHT22;56665;41.106;16.688;2023-04-25T05:14:43;17.79;60.09
69464;DHT22;56665;41.106;16.688;2023-04-25T05:18:07;17.81;60.02
69464;DHT22;56665;41.106;16.688;2023-04-25T05:21:37;17.79;60.22
69464;DHT22;56665;41.106;16.688;2023-04-25T05:25:02;17.83;60.26
69464;DHT22;56665;41.106;16.688;2023-04-25T05:28:30;17.78;60.57
69464;DHT22;56665;41.106;16.688;2023-04-25T05:31:57;17.76;60.76
69464;DHT22;56665;41.106;16.688;2023-04-25T05:35:01;17.86;60.47
69464;DHT22;56665;41.106;16.688;2023-04-25T05:38:10;18.33;59.29
69464;DHT22;56665;41.106;16.688;2023-04-25T05:41:40;19.02;57.71
69464;DHT22;56665;41.106;16.688;2023-04-25T05:45:21;19.37;56.68
69464;DHT22;56665;41.106;16.688;2023-04-25T05:48:48;19.82;55.82
69464;DHT22;56665;41.106;16.688;2023-04-25T05:52:18;20.01;55.09
69464;DHT22;56665;41.106;16.688;2023-04-25T05:55:43;20.28;54.71
69464;DHT22;56665;41.106;16.688;2023-04-25T05:59:04;20.73;53.40
69464;DHT22;56665;41.106;16.688;2023-04-25T06:02:07;21.03;52.94
69464;DHT22;56665;41.106;16.688;2023-04-25T06:05:12;21.07;53.33
69464;DHT22;56665;41.106;16.688;2023-04-25T06:08:16;21.30;52.80
69464;DHT22;56665;41.106;16.688;2023-04-25T06:11:20;21.39;52.34
69464;DHT22;56665;41.106;16.688;2023-04-25T06:14:24;21.46;52.24
69464;DHT22;56665;41.106;16.688;2023-04-25T06:17:28;21.41;52.26
69464;DHT22;56665;41.106;16.688;2023-04-25T06:20:34;21.56;52.03
69464;DHT22;56665;41.106;16.688;2023-04-25T06:23:38;21.70;51.99
69464;DHT22;56665;41.106;16.688;2023-04-25T06:26:44;21.76;51.81
69464;DHT22;56665;41.106;16.688;2023-04-25T06:29:48;21.83;51.60
69464;DHT22;56665;41.106;16.688;2023-04-25T06:32:52;21.93;51.60
69464;DHT22;56665;41.106;16.688;2023-04-25T06:35:57;22.14;51.08
69464;DHT22;56665;41.106;16.688;2023-04-25T06:39:04;22.21;50.12
69464;DHT22;56665;41.106;16.688;2023-04-25T06:42:11;22.55;49.30
69464;DHT22;56665;41.106;16.688;2023-04-25T06:45:23;23.12;48.25
69464;DHT22;56665;41.106;16.688;2023-04-25T06:48:30;23.65;46.98
69464;DHT22;56665;41.106;16.688;2023-04-25T06:51:35;24.00;46.24
69464;DHT22;56665;41.106;16.688;2023-04-25T06:54:39;24.23;45.81
69464;DHT22;56665;41.106;16.688;2023-04-25T06:57:56;24.80;44.61
69464;DHT22;56665;41.106;16.688;2023-04-25T07:01:19;24.49;44.94
69464;DHT22;56665;41.106;16.688;2023-04-25T07:04:23;24.46;44.82
69464;DHT22;56665;41.106;16.688;2023-04-25T07:07:32;25.00;42.71
69464;DHT22;56665;41.106;16.688;2023-04-25T07:10:37;25.61;42.13
69464;DHT22;56665;41.106;16.688;2023-04-25T07:13:41;26.19;40.47
69464;DHT22;56665;41.106;16.688;2023-04-25T07:16:46;26.45;39.72
69464;DHT22;56665;41.106;16.688;2023-04-25T07:19:50;26.52;39.74
69464;DHT22;56665;41.106;16.688;2023-04-25T07:22:54;26.65;38.86
69464;DHT22;56665;41.106;16.688;2023-04-25T07:26:00;26.89;38.32
69464;DHT22;56665;41.106;16.688;2023-04-25T07:29:06;27.19;38.39
69464;DHT22;56665;41.106;16.688;2023-04-25T07:32:10;27.18;38.29
69464;DHT22;56665;41.106;16.688;2023-04-25T07:35:17;27.36;37.60
69464;DHT22;56665;41.106;16.688;2023-04-25T07:38:21;27.12;37.44
69464;DHT22;56665;41.106;16.688;2023-04-25T07:41:25;27.59;36.78
69464;DHT22;56665;41.106;16.688;2023-04-25T07:44:29;27.71;35.84
69464;DHT22;56665;41.106;16.688;2023-04-25T07:47:35;27.80;35.79
69464;DHT22;56665;41.106;16.688;2023-04-25T07:50:39;27.77;35.75
69464;DHT22;56665;41.106;16.688;2023-04-25T07:53:43;27.46;36.52
69464;DHT22;56665;41.106;16.688;2023-04-25T07:56:50;28.21;35.58
69464;DHT22;56665;41.106;16.688;2023-04-25T07:59:54;28.73;35.44
69464;DHT22;56665;41.106;16.688;2023-04-25T08:02:59;29.90;32.66
69464;DHT22;56665;41.106;16.688;2023-04-25T08:06:04;31.22;31.55
69464;DHT22;56665;41.106;16.688;2023-04-25T08:09:15;32.82;29.24
69464;DHT22;56665;41.106;16.688;2023-04-25T08:12:20;34.36;28.07
69464;DHT22;56665;41.106;16.688;2023-04-25T08:15:24;35.17;26.87
69464;DHT22;56665;41.106;16.688;2023-04-25T08:18:28;35.13;26.53
69464;DHT22;56665;41.106;16.688;2023-04-25T08:21:32;35.57;26.87
69464;DHT22;56665;41.106;16.688;2023-04-25T08:24:42;36.46;25.44
69464;DHT22;56665;41.106;16.688;2023-04-25T08:27:46;36.66;25.10
69464;DHT22;56665;41.106;16.688;2023-04-25T08:30:54;37.10;25.18
69464;DHT22;56665;41.106;16.688;2023-04-25T08:33:58;36.64;24.64
69464;DHT22;56665;41.106;16.688;2023-04-25T08:37:08;37.11;24.35
69464;DHT22;56665;41.106;16.688;2023-04-25T08:40:28;36.95;24.63
69464;DHT22;56665;41.106;16.688;2023-04-25T08:43:42;37.53;23.82
69464;DHT22;56665;41.106;16.688;2023-04-25T08:46:48;37.63;23.87
69464;DHT22;56665;41.106;16.688;2023-04-25T08:50:04;37.01;24.12
69464;DHT22;56665;41.106;16.688;2023-04-25T08:53:09;37.07;23.88
69464;DHT22;56665;41.106;16.688;2023-04-25T08:56:20;37.52;23.71
69464;DHT22;56665;41.106;16.688;2023-04-25T08:59:27;37.49;23.19
69464;DHT22;56665;41.106;16.688;2023-04-25T09:02:33;37.96;22.97
69464;DHT22;56665;41.106;16.688;2023-04-25T09:05:41;36.99;23.55
69464;DHT22;56665;41.106;16.688;2023-04-25T09:08:45;36.22;24.37
69464;DHT22;56665;41.106;16.688;2023-04-25T09:11:49;35.74;24.98
69464;DHT22;56665;41.106;16.688;2023-04-25T09:15:07;34.12;26.71
69464;DHT22;56665;41.106;16.688;2023-04-25T09:18:38;33.23;27.06
69464;DHT22;56665;41.106;16.688;2023-04-25T09:21:42;33.04;27.00
69464;DHT22;56665;41.106;16.688;2023-04-25T09:24:46;32.86;27.00
69464;DHT22;56665;41.106;16.688;2023-04-25T09:27:54;32.55;27.74
69464;DHT22;56665;41.106;16.688;2023-04-25T09:31:04;32.21;27.94
69464;DHT22;56665;41.106;16.688;2023-04-25T09:34:25;31.33;29.17
69464;DHT22;56665;41.106;16.688;2023-04-25T09:37:32;30.54;29.18
69464;DHT22;56665;41.106;16.688;2023-04-25T09:40:54;30.71;29.50
69464;DHT22;56665;41.106;16.688;2023-04-25T09:44:23;29.88;30.20
69464;DHT22;56665;41.106;16.688;2023-04-25T09:47:27;28.94;31.88
69464;DHT22;56665;41.106;16.688;2023-04-25T09:50:33;29.58;31.29
69464;DHT22;56665;41.106;16.688;2023-04-25T09:53:46;30.13;30.26
69464;DHT22;56665;41.106;16.688;2023-04-25T09:57:23;31.02;29.19
69464;DHT22;56665;41.106;16.688;2023-04-25T10:00:28;30.34;29.94
69464;DHT22;56665;41.106;16.688;2023-04-25T10:03:33;30.07;30.01
69464;DHT22;56665;41.106;16.688;2023-04-25T10:06:59;30.54;29.68
69464;DHT22;56665;41.106;16.688;2023-04-25T10:10:04;30.81;29.43
69464;DHT22;56665;41.106;16.688;2023-04-25T10:13:10;31.14;28.78
69464;DHT22;56665;41.106;16.688;2023-04-25T10:16:15;30.53;29.38
69464;DHT22;56665;41.106;16.688;2023-04-25T10:19:20;30.23;29.83
69464;DHT22;56665;41.106;16.688;2023-04-25T10:22:29;30.58;29.47
69464;DHT22;56665;41.106;16.688;2023-04-25T10:25:37;31.19;29.20
69464;DHT22;56665;41.106;16.688;2023-04-25T10:29:07;31.59;28.86
69464;DHT22;56665;41.106;16.688;2023-04-25T10:32:12;31.21;29.01
69464;DHT22;56665;41.106;16.688;2023-04-25T10:35:27;30.46;29.25
69464;DHT22;56665;41.106;16.688;2023-04-25T10:38:31;28.82;36.04
69464;DHT22;56665;41.106;16.688;2023-04-25T10:45:04;27.11;40.79
69464;DHT22;56665;41.106;16.688;2023-04-25T10:48:28;27.11;41.27
69464;DHT22;56665;41.106;16.688;2023-04-25T10:51:33;26.20;42.92
69464;DHT22;56665;41.106;16.688;2023-04-25T10:54:57;26.09;43.82
69464;DHT22;56665;41.106;16.688;2023-04-25T10:58:01;26.20;42.54
69464;DHT22;56665;41.106;16.688;2023-04-25T11:01:06;25.39;44.59
69464;DHT22;56665;41.106;16.688;2023-04-25T11:04:32;24.29;45.32
69464;DHT22;56665;41.106;16.688;2023-04-25T11:07:45;24.12;46.62
69464;DHT22;56665;41.106;16.688;2023-04-25T11:10:52;23.65;48.39
69464;DHT22;56665;41.106;16.688;2023-04-25T11:13:55;23.71;47.43
69464;DHT22;56665;41.106;16.688;2023-04-25T11:17:00;24.66;45.81
69464;DHT22;56665;41.106;16.688;2023-04-25T11:20:05;23.95;46.53
69464;DHT22;56665;41.106;16.688;2023-04-25T11:23:15;23.80;47.15
69464;DHT22;56665;41.106;16.688;2023-04-25T11:26:19;23.51;47.85
69464;DHT22;56665;41.106;16.688;2023-04-25T11:29:31;23.40;48.89
69464;DHT22;56665;41.106;16.688;2023-04-25T11:32:36;23.57;47.85
69464;DHT22;56665;41.106;16.688;2023-04-25T11:35:42;24.16;47.30
69464;DHT22;56665;41.106;16.688;2023-04-25T11:38:45;24.56;45.26
69464;DHT22;56665;41.106;16.688;2023-04-25T11:41:51;25.18;44.42
69464;DHT22;56665;41.106;16.688;2023-04-25T11:44:55;25.48;43.28
69464;DHT22;56665;41.106;16.688;2023-04-25T11:47:59;26.20;42.31
69464;DHT22;56665;41.106;16.688;2023-04-25T11:51:06;26.21;42.74
69464;DHT22;56665;41.106;16.688;2023-04-25T11:54:13;25.59;43.43
69464;DHT22;56665;41.106;16.688;2023-04-25T11:57:20;25.27;43.84
69464;DHT22;56665;41.106;16.688;2023-04-25T12:00:24;25.45;43.50
69464;DHT22;56665;41.106;16.688;2023-04-25T12:03:29;25.69;42.90
69464;DHT22;56665;41.106;16.688;2023-04-25T12:06:40;25.48;42.53
69464;DHT22;56665;41.106;16.688;2023-04-25T12:09:51;25.11;42.83
69464;DHT22;56665;41.106;16.688;2023-04-25T12:12:56;24.69;44.16
69464;DHT22;56665;41.106;16.688;2023-04-25T12:16:00;25.49;42.63
69464;DHT22;56665;41.106;16.688;2023-04-25T12:19:04;25.32;42.23
69464;DHT22;56665;41.106;16.688;2023-04-25T12:22:22;24.48;44.08
69464;DHT22;56665;41.106;16.688;2023-04-25T12:25:40;24.74;43.71
69464;DHT22;56665;41.106;16.688;2023-04-25T12:28:45;24.39;43.83
69464;DHT22;56665;41.106;16.688;2023-04-25T12:31:51;24.12;45.66
69464;DHT22;56665;41.106;16.688;2023-04-25T12:34:56;24.12;45.93
69464;DHT22;56665;41.106;16.688;2023-04-25T12:38:00;24.66;45.34
69464;DHT22;56665;41.106;16.688;2023-04-25T12:41:04;24.23;45.79
69464;DHT22;56665;41.106;16.688;2023-04-25T12:44:07;23.84;46.78
69464;DHT22;56665;41.106;16.688;2023-04-25T12:47:11;23.57;46.57
69464;DHT22;56665;41.106;16.688;2023-04-25T12:50:16;23.88;46.22
69464;DHT22;56665;41.106;16.688;2023-04-25T12:53:21;23.85;46.18
69464;DHT22;56665;41.106;16.688;2023-04-25T12:56:26;23.11;47.14
69464;DHT22;56665;41.106;16.688;2023-04-25T12:59:30;22.75;48.37
69464;DHT22;56665;41.106;16.688;2023-04-25T13:02:33;22.35;49.42
69464;DHT22;56665;41.106;16.688;2023-04-25T13:05:38;22.30;49.24
69464;DHT22;56665;41.106;16.688;2023-04-25T13:08:41;22.34;49.05
69464;DHT22;56665;41.106;16.688;2023-04-25T13:11:46;21.92;49.19
69464;DHT22;56665;41.106;16.688;2023-04-25T13:14:50;21.51;49.81
69464;DHT22;56665;41.106;16.688;2023-04-25T13:17:55;21.67;49.22
69464;DHT22;56665;41.106;16.688;2023-04-25T13:20:59;22.20;48.30
69464;DHT22;56665;41.106;16.688;2023-04-25T13:24:03;22.23;48.35
69464;DHT22;56665;41.106;16.688;2023-04-25T13:27:09;22.10;48.84
69464;DHT22;56665;41.106;16.688;2023-04-25T13:30:14;21.69;49.07
69464;DHT22;56665;41.106;16.688;2023-04-25T13:33:19;21.35;49.31
69464;DHT22;56665;41.106;16.688;2023-04-25T13:36:24;21.67;48.97
69464;DHT22;56665;41.106;16.688;2023-04-25T13:39:28;21.89;48.26
69464;DHT22;56665;41.106;16.688;2023-04-25T13:42:32;21.80;48.24
69464;DHT22;56665;41.106;16.688;2023-04-25T13:45:36;21.54;49.78
69464;DHT22;56665;41.106;16.688;2023-04-25T13:48:39;21.77;49.48
69464;DHT22;56665;41.106;16.688;2023-04-25T13:51:44;22.14;48.80
69464;DHT22;56665;41.106;16.688;2023-04-25T13:54:48;22.92;47.33
69464;DHT22;56665;41.106;16.688;2023-04-25T13:57:52;23.47;46.05
69464;DHT22;56665;41.106;16.688;2023-04-25T14:00:56;22.69;47.81
69464;DHT22;56665;41.106;16.688;2023-04-25T14:03:59;22.41;48.68
69464;DHT22;56665;41.106;16.688;2023-04-25T14:07:05;22.14;49.08
69464;DHT22;56665;41.106;16.688;2023-04-25T14:10:09;22.12;49.13
69464;DHT22;56665;41.106;16.688;2023-04-25T14:13:13;21.95;49.07
69464;DHT22;56665;41.106;16.688;2023-04-25T14:16:17;21.89;49.38
69464;DHT22;56665;41.106;16.688;2023-04-25T14:19:22;21.58;49.66
69464;DHT22;56665;41.106;16.688;2023-04-25T14:22:26;21.28;50.24
69464;DHT22;56665;41.106;16.688;2023-04-25T14:25:31;21.25;50.46
69464;DHT22;56665;41.106;16.688;2023-04-25T14:28:35;21.34;50.04
69464;DHT22;56665;41.106;16.688;2023-04-25T14:31:40;21.52;49.55
69464;DHT22;56665;41.106;16.688;2023-04-25T14:34:44;21.61;49.28
69464;DHT22;56665;41.106;16.688;2023-04-25T14:37:48;21.42;49.57
69464;DHT22;56665;41.106;16.688;2023-04-25T14:40:52;21.42;49.50
69464;DHT22;56665;41.106;16.688;2023-04-25T14:43:57;21.69;49.03
69464;DHT22;56665;41.106;16.688;2023-04-25T14:47:01;22.37;47.51
69464;DHT22;56665;41.106;16.688;2023-04-25T14:50:07;22.89;46.41
69464;DHT22;56665;41.106;16.688;2023-04-25T14:53:12;23.03;45.75
69464;DHT22;56665;41.106;16.688;2023-04-25T14:56:16;23.13;45.75
69464;DHT22;56665;41.106;16.688;2023-04-25T14:59:20;23.36;45.49
69464;DHT22;56665;41.106;16.688;2023-04-25T15:02:25;22.86;46.10
69464;DHT22;56665;41.106;16.688;2023-04-25T15:05:29;22.44;46.70
69464;DHT22;56665;41.106;16.688;2023-04-25T15:08:33;22.17;47.47
69464;DHT22;56665;41.106;16.688;2023-04-25T15:11:38;22.21;47.40
69464;DHT22;56665;41.106;16.688;2023-04-25T15:14:42;22.28;47.57
69464;DHT22;56665;41.106;16.688;2023-04-25T15:17:46;22.28;47.79
69464;DHT22;56665;41.106;16.688;2023-04-25T15:20:50;22.57;47.10
69464;DHT22;56665;41.106;16.688;2023-04-25T15:23:54;22.64;46.95
69464;DHT22;56665;41.106;16.688;2023-04-25T15:26:58;22.41;46.75
69464;DHT22;56665;41.106;16.688;2023-04-25T15:30:05;22.37;46.90
69464;DHT22;56665;41.106;16.688;2023-04-25T15:33:10;22.17;46.92
69464;DHT22;56665;41.106;16.688;2023-04-25T15:36:14;22.02;47.11
69464;DHT22;56665;41.106;16.688;2023-04-25T15:39:20;21.80;47.63
69464;DHT22;56665;41.106;16.688;2023-04-25T15:42:23;22.00;47.66
69464;DHT22;56665;41.106;16.688;2023-04-25T15:45:27;22.02;47.65
69464;DHT22;56665;41.106;16.688;2023-04-25T15:48:32;21.96;47.74
69464;DHT22;56665;41.106;16.688;2023-04-25T15:51:35;22.02;47.78
69464;DHT22;56665;41.106;16.688;2023-04-25T15:54:39;22.04;47.47
69464;DHT22;56665;41.106;16.688;2023-04-25T15:57:43;21.88;47.56
69464;DHT22;56665;41.106;16.688;2023-04-25T16:00:47;21.63;48.01
69464;DHT22;56665;41.106;16.688;2023-04-25T16:03:54;21.52;48.53
69464;DHT22;56665;41.106;16.688;2023-04-25T16:07:02;21.38;48.62
69464;DHT22;56665;41.106;16.688;2023-04-25T16:10:08;21.19;48.98
69464;DHT22;56665;41.106;16.688;2023-04-25T16:13:14;21.22;49.02
69464;DHT22;56665;41.106;16.688;2023-04-25T16:16:18;21.03;49.49
69464;DHT22;56665;41.106;16.688;2023-04-25T16:19:23;20.73;50.34
69464;DHT22;56665;41.106;16.688;2023-04-25T16:22:27;20.53;51.05
69464;DHT22;56665;41.106;16.688;2023-04-25T16:25:30;20.36;51.51
69464;DHT22;56665;41.106;16.688;2023-04-25T16:28:34;20.30;51.66
69464;DHT22;56665;41.106;16.688;2023-04-25T16:31:38;20.35;51.69
69464;DHT22;56665;41.106;16.688;2023-04-25T16:34:42;20.42;51.45
69464;DHT22;56665;41.106;16.688;2023-04-25T16:37:45;20.46;51.37
69464;DHT22;56665;41.106;16.688;2023-04-25T16:40:49;20.38;51.35
69464;DHT22;56665;41.106;16.688;2023-04-25T16:43:54;20.29;51.52
69464;DHT22;56665;41.106;16.688;2023-04-25T16:46:57;20.25;51.86
69464;DHT22;56665;41.106;16.688;2023-04-25T16:50:03;20.19;52.23
69464;DHT22;56665;41.106;16.688;2023-04-25T16:53:06;20.21;52.47
69464;DHT22;56665;41.106;16.688;2023-04-25T16:56:11;20.19;52.50
69464;DHT22;56665;41.106;16.688;2023-04-25T16:59:15;20.16;52.76
69464;DHT22;56665;41.106;16.688;2023-04-25T17:02:19;20.15;52.89
69464;DHT22;56665;41.106;16.688;2023-04-25T17:05:24;20.02;52.90
69464;DHT22;56665;41.106;16.688;2023-04-25T17:08:30;19.89;54.23
69464;DHT22;56665;41.106;16.688;2023-04-25T17:11:35;19.94;54.20
69464;DHT22;56665;41.106;16.688;2023-04-25T17:14:39;20.02;54.61
69464;DHT22;56665;41.106;16.688;2023-04-25T17:17:42;20.09;55.61
69464;DHT22;56665;41.106;16.688;2023-04-25T17:20:47;20.09;55.42
69464;DHT22;56665;41.106;16.688;2023-04-25T17:23:50;20.16;55.67
69464;DHT22;56665;41.106;16.688;2023-04-25T17:26:55;20.24;55.67
69464;DHT22;56665;41.106;16.688;2023-04-25T17:30:00;20.25;55.79
69464;DHT22;56665;41.106;16.688;2023-04-25T17:33:04;20.24;55.97
69464;DHT22;56665;41.106;16.688;2023-04-25T17:36:10;20.19;56.48
69464;DHT22;56665;41.106;16.688;2023-04-25T17:39:14;20.07;56.38
69464;DHT22;56665;41.106;16.688;2023-04-25T17:42:20;19.95;57.33
69464;DHT22;56665;41.106;16.688;2023-04-25T17:45:24;19.87;57.35
69464;DHT22;56665;41.106;16.688;2023-04-25T17:48:29;19.81;57.60
69464;DHT22;56665;41.106;16.688;2023-04-25T17:51:34;19.74;58.09
69464;DHT22;56665;41.106;16.688;2023-04-25T17:54:37;19.73;57.95
69464;DHT22;56665;41.106;16.688;2023-04-25T17:57:41;19.67;58.82
69464;DHT22;56665;41.106;16.688;2023-04-25T18:00:46;19.56;58.59
69464;DHT22;56665;41.106;16.688;2023-04-25T18:03:51;19.45;59.13
69464;DHT22;56665;41.106;16.688;2023-04-25T18:06:55;19.39;60.01
69464;DHT22;56665;41.106;16.688;2023-04-25T18:09:59;19.37;59.62
69464;DHT22;56665;41.106;16.688;2023-04-25T18:13:03;19.30;59.62
69464;DHT22;56665;41.106;16.688;2023-04-25T18:16:08;19.19;60.04
69464;DHT22;56665;41.106;16.688;2023-04-25T18:19:13;19.13;60.27
69464;DHT22;56665;41.106;16.688;2023-04-25T18:22:36;19.02;60.49
69464;DHT22;56665;41.106;16.688;2023-04-25T18:25:39;18.94;61.40
69464;DHT22;56665;41.106;16.688;2023-04-25T18:28:44;18.84;61.23
69464;DHT22;56665;41.106;16.688;2023-04-25T18:31:47;18.78;61.43
69464;DHT22;56665;41.106;16.688;2023-04-25T18:34:51;18.68;61.78
69464;DHT22;56665;41.106;16.688;2023-04-25T18:37:55;18.64;62.04
69464;DHT22;56665;41.106;16.688;2023-04-25T18:40:59;18.50;62.18
69464;DHT22;56665;41.106;16.688;2023-04-25T18:44:03;18.44;62.15
69464;DHT22;56665;41.106;16.688;2023-04-25T18:47:08;18.36;62.39
69464;DHT22;56665;41.106;16.688;2023-04-25T18:50:12;18.33;62.47
69464;DHT22;56665;41.106;16.688;2023-04-25T18:53:19;18.34;62.50
69464;DHT22;56665;41.106;16.688;2023-04-25T18:56:23;18.37;63.00
69464;DHT22;56665;41.106;16.688;2023-04-25T18:59:29;18.38;63.35
69464;DHT22;56665;41.106;16.688;2023-04-25T19:02:36;18.41;63.49
69464;DHT22;56665;41.106;16.688;2023-04-25T19:05:41;18.47;63.54
69464;DHT22;56665;41.106;16.688;2023-04-25T19:08:45;18.53;63.71
69464;DHT22;56665;41.106;16.688;2023-04-25T19:11:49;18.56;63.42
69464;DHT22;56665;41.106;16.688;2023-04-25T19:14:53;18.58;63.42
69464;DHT22;56665;41.106;16.688;2023-04-25T19:17:58;18.58;63.04
69464;DHT22;56665;41.106;16.688;2023-04-25T19:21:03;18.64;63.28
69464;DHT22;56665;41.106;16.688;2023-04-25T19:24:10;18.60;63.10
69464;DHT22;56665;41.106;16.688;2023-04-25T19:27:15;18.54;63.37